createdAt,value
2017-12-19T00:00:27.772Z,213.90
2017-12-19T00:01:27.778Z,246.20
2017-12-19T00:02:27.726Z,251.60
2017-12-19T00:03:27.720Z,222.00
2017-12-19T00:04:27.648Z,218.80
2017-12-19T00:05:27.600Z,214.50
2017-12-19T00:06:27.568Z,207.20
2017-12-19T00:07:27.492Z,207.70
2017-12-19T00:08:27.458Z,207.90
2017-12-19T00:09:27.433Z,185.00
2017-12-19T00:10:27.392Z,181.00
2017-12-19T00:11:27.349Z,197.70
2017-12-19T00:12:27.306Z,186.30
2017-12-19T00:13:27.257Z,179.60
2017-12-19T00:14:27.218Z,186.20
2017-12-19T00:15:27.228Z,193.80
2017-12-19T00:16:27.134Z,185.70
2017-12-19T00:17:27.158Z,172.00
2017-12-19T00:18:27.070Z,179.70
2017-12-19T00:19:27.012Z,181.20
2017-12-19T00:20:26.969Z,173.20
2017-12-19T00:21:26.990Z,192.80
2017-12-19T00:22:26.897Z,216.00
2017-12-19T00:23:26.849Z,222.20
2017-12-19T00:24:26.822Z,240.00
2017-12-19T00:25:26.812Z,394.90
2017-12-19T00:26:26.738Z,297.50
2017-12-19T00:27:26.690Z,219.20
2017-12-19T00:28:26.651Z,211.90
2017-12-19T00:29:26.660Z,192.00
2017-12-19T00:30:26.585Z,191.10
2017-12-19T00:31:26.530Z,173.80
2017-12-19T00:32:26.489Z,191.40
2017-12-19T00:33:26.495Z,171.80
2017-12-19T00:34:26.463Z,188.40
2017-12-19T00:35:26.369Z,169.00
2017-12-19T00:36:26.389Z,166.50
2017-12-19T00:37:26.311Z,175.70
2017-12-19T00:38:26.252Z,179.40
2017-12-19T00:39:26.209Z,193.20
2017-12-19T00:40:26.175Z,188.00
2017-12-19T00:41:26.129Z,189.50
2017-12-19T00:42:26.092Z,192.30
2017-12-19T00:43:26.069Z,188.20
2017-12-19T00:44:26.014Z,179.90
2017-12-19T00:45:25.972Z,156.80
2017-12-19T00:46:25.964Z,172.60
2017-12-19T00:47:25.955Z,181.80
2017-12-19T00:48:25.866Z,174.00
2017-12-19T00:49:25.809Z,184.00
2017-12-19T00:50:25.786Z,180.70
2017-12-19T00:51:25.728Z,197.10
2017-12-19T00:52:25.745Z,178.40
2017-12-19T00:53:25.653Z,185.60
2017-12-19T00:54:25.622Z,182.70
2017-12-19T00:55:25.574Z,175.90
2017-12-19T00:56:25.575Z,181.60
2017-12-19T00:57:25.489Z,184.50
2017-12-19T00:58:25.457Z,181.50
2017-12-19T00:59:25.412Z,191.30
2017-12-19T01:00:25.430Z,187.80
2017-12-19T01:01:25.359Z,182.30
2017-12-19T01:02:25.289Z,175.00
2017-12-19T01:03:25.265Z,184.50
2017-12-19T01:04:25.237Z,188.90
2017-12-19T01:05:25.171Z,181.00
2017-12-19T01:06:25.132Z,188.70
2017-12-19T01:07:25.090Z,186.90
2017-12-19T01:08:25.050Z,173.80
2017-12-19T01:09:25.017Z,183.20
2017-12-19T01:10:24.972Z,183.60
2017-12-19T01:11:24.949Z,178.00
2017-12-19T01:12:24.900Z,184.90
2017-12-19T01:13:24.852Z,184.70
2017-12-19T01:14:24.830Z,164.70
2017-12-19T01:15:24.766Z,186.00
2017-12-19T01:16:24.743Z,177.90
2017-12-19T01:17:24.698Z,179.50
2017-12-19T01:18:24.661Z,167.50
2017-12-19T01:19:24.622Z,163.20
2017-12-19T01:20:24.578Z,181.10
2017-12-19T01:21:24.761Z,154.50
2017-12-19T01:22:24.496Z,148.80
2017-12-19T01:23:24.456Z,162.90
2017-12-19T01:24:24.416Z,165.80
2017-12-19T01:25:24.372Z,170.80
2017-12-19T01:26:24.350Z,155.90
2017-12-19T01:27:24.335Z,166.40
2017-12-19T01:28:24.267Z,162.00
2017-12-19T01:29:24.241Z,142.00
2017-12-19T01:30:24.187Z,161.40
2017-12-19T01:31:24.161Z,173.90
2017-12-19T01:32:24.104Z,154.80
2017-12-19T01:33:24.053Z,154.50
2017-12-19T01:34:24.006Z,161.30
2017-12-19T01:35:23.992Z,171.10
2017-12-19T01:36:23.921Z,158.20
2017-12-19T01:37:23.880Z,171.80
2017-12-19T01:38:23.844Z,158.80
2017-12-19T01:39:23.839Z,158.10
2017-12-19T01:40:23.766Z,142.70
2017-12-19T01:41:23.728Z,171.10
2017-12-19T01:42:23.686Z,147.90
2017-12-19T01:43:23.664Z,153.30
2017-12-19T01:44:23.597Z,162.80
2017-12-19T01:45:23.556Z,158.40
2017-12-19T01:46:23.513Z,156.90
2017-12-19T01:47:23.528Z,140.10
2017-12-19T01:48:23.489Z,151.00
2017-12-19T01:49:23.411Z,149.90
2017-12-19T01:50:23.354Z,152.70
2017-12-19T01:51:23.312Z,140.50
2017-12-19T01:52:23.290Z,138.10
2017-12-19T01:53:23.708Z,129.50
2017-12-19T01:54:23.207Z,135.80
2017-12-19T01:55:23.160Z,140.20
2017-12-19T01:56:23.141Z,128.90
2017-12-19T01:57:23.069Z,142.30
2017-12-19T01:58:23.097Z,134.40
2017-12-19T01:59:23.003Z,139.90
2017-12-19T02:00:22.962Z,115.00
2017-12-19T02:01:22.906Z,124.90
2017-12-19T02:02:22.912Z,122.70
2017-12-19T02:03:22.846Z,127.30
2017-12-19T02:04:22.796Z,120.20
2017-12-19T02:05:22.754Z,125.40
2017-12-19T02:06:22.709Z,125.60
2017-12-19T02:07:22.681Z,127.20
2017-12-19T02:08:22.649Z,130.30
2017-12-19T02:09:22.615Z,141.10
2017-12-19T02:10:22.542Z,125.20
2017-12-19T02:11:22.505Z,112.10
2017-12-19T02:12:22.481Z,123.50
2017-12-19T02:13:22.439Z,120.70
2017-12-19T02:14:22.383Z,114.50
2017-12-19T02:15:22.395Z,120.90
2017-12-19T02:16:22.310Z,129.60
2017-12-19T02:17:22.287Z,123.30
2017-12-19T02:18:22.221Z,124.00
2017-12-19T02:19:22.178Z,122.50
2017-12-19T02:20:22.155Z,111.50
2017-12-19T02:21:22.129Z,131.00
2017-12-19T02:22:22.083Z,112.40
2017-12-19T02:23:22.019Z,113.80
2017-12-19T02:24:22.572Z,107.10
2017-12-19T02:25:21.940Z,106.80
2017-12-19T02:26:21.909Z,112.50
2017-12-19T02:27:21.888Z,101.50
2017-12-19T02:28:21.907Z,107.00
2017-12-19T02:29:21.793Z,107.90
2017-12-19T02:30:21.769Z,105.10
2017-12-19T02:31:21.709Z,88.40
2017-12-19T02:32:21.663Z,103.10
2017-12-19T02:33:21.620Z,100.40
2017-12-19T02:34:21.657Z,101.60
2017-12-19T02:35:21.893Z,120.20
2017-12-19T02:36:21.514Z,110.80
2017-12-19T02:37:21.453Z,109.80
2017-12-19T02:38:21.445Z,118.20
2017-12-19T02:39:21.375Z,118.30
2017-12-19T02:40:21.333Z,116.90
2017-12-19T02:41:21.374Z,113.30
2017-12-19T02:42:21.307Z,106.00
2017-12-19T02:43:21.219Z,113.40
2017-12-19T02:44:21.174Z,116.80
2017-12-19T02:45:21.156Z,112.20
2017-12-19T02:46:21.141Z,113.30
2017-12-19T02:47:21.097Z,115.50
2017-12-19T02:48:21.037Z,105.60
2017-12-19T02:49:20.995Z,119.40
2017-12-19T02:50:20.996Z,107.10
2017-12-19T02:51:20.916Z,106.10
2017-12-19T02:52:20.854Z,108.00
2017-12-19T02:53:20.867Z,106.50
2017-12-19T02:54:20.783Z,111.60
2017-12-19T02:55:20.764Z,109.30
2017-12-19T02:56:20.733Z,106.30
2017-12-19T02:57:20.694Z,132.10
2017-12-19T02:58:20.670Z,120.50
2017-12-19T02:59:21.991Z,110.30
2017-12-19T03:00:22.492Z,106.60
2017-12-19T03:01:21.128Z,115.80
2017-12-19T03:02:20.452Z,109.50
2017-12-19T03:03:20.991Z,108.90
2017-12-19T03:04:20.391Z,99.50
2017-12-19T03:05:20.334Z,108.40
2017-12-19T03:06:20.329Z,118.10
2017-12-19T03:07:20.313Z,109.30
2017-12-19T03:08:20.241Z,107.70
2017-12-19T03:09:20.179Z,117.40
2017-12-19T03:10:20.173Z,113.10
2017-12-19T03:11:20.089Z,113.10
2017-12-19T03:12:20.071Z,103.50
2017-12-19T03:13:20.009Z,108.20
2017-12-19T03:14:20.013Z,106.20
2017-12-19T03:15:19.937Z,109.30
2017-12-19T03:16:19.889Z,108.80
2017-12-19T03:17:19.863Z,122.00
2017-12-19T03:18:20.097Z,111.30
2017-12-19T03:19:19.815Z,120.50
2017-12-19T03:20:19.730Z,102.70
2017-12-19T03:21:19.693Z,121.90
2017-12-19T03:22:19.652Z,111.60
2017-12-19T03:23:19.614Z,114.90
2017-12-19T03:24:19.581Z,111.80
2017-12-19T03:25:19.558Z,111.80
2017-12-19T03:26:19.503Z,115.60
2017-12-19T03:27:19.468Z,120.30
2017-12-19T03:28:19.418Z,125.40
2017-12-19T03:29:19.376Z,122.10
2017-12-19T03:30:19.328Z,115.10
2017-12-19T03:31:19.304Z,107.90
2017-12-19T03:32:19.263Z,125.70
2017-12-19T03:33:19.257Z,111.30
2017-12-19T03:34:19.184Z,109.30
2017-12-19T03:35:19.138Z,110.40
2017-12-19T03:36:19.094Z,105.70
2017-12-19T03:37:19.053Z,111.70
2017-12-19T03:38:19.054Z,101.60
2017-12-19T03:39:18.984Z,94.70
2017-12-19T03:40:19.036Z,102.30
2017-12-19T03:41:18.899Z,95.80
2017-12-19T03:42:18.849Z,95.50
2017-12-19T03:43:18.824Z,92.90
2017-12-19T03:44:18.833Z,95.50
2017-12-19T03:45:18.766Z,93.80
2017-12-19T03:46:18.719Z,91.70
2017-12-19T03:47:18.650Z,79.70
2017-12-19T03:48:18.667Z,92.10
2017-12-19T03:49:18.582Z,83.60
2017-12-19T03:50:18.539Z,86.10
2017-12-19T03:51:18.489Z,90.60
2017-12-19T03:52:18.512Z,78.80
2017-12-19T03:53:18.413Z,87.40
2017-12-19T03:54:18.384Z,89.10
2017-12-19T03:55:18.358Z,71.10
2017-12-19T03:56:18.301Z,75.50
2017-12-19T03:57:18.255Z,90.00
2017-12-19T03:58:18.219Z,81.20
2017-12-19T03:59:18.185Z,97.20
2017-12-19T04:00:18.175Z,81.60
2017-12-19T04:01:18.119Z,85.90
2017-12-19T04:02:18.091Z,77.80
2017-12-19T04:03:18.042Z,77.00
2017-12-19T04:04:17.981Z,75.70
2017-12-19T04:05:17.963Z,84.40
2017-12-19T04:06:17.926Z,79.80
2017-12-19T04:07:17.894Z,77.70
2017-12-19T04:08:17.838Z,83.80
2017-12-19T04:09:17.783Z,93.00
2017-12-19T04:10:17.754Z,88.20
2017-12-19T04:11:17.919Z,91.20
2017-12-19T04:12:17.671Z,83.40
2017-12-19T04:13:17.651Z,79.00
2017-12-19T04:14:17.626Z,79.70
2017-12-19T04:15:17.554Z,94.30
2017-12-19T04:16:17.549Z,86.20
2017-12-19T04:17:17.452Z,78.10
2017-12-19T04:18:17.538Z,75.90
2017-12-19T04:19:17.389Z,89.10
2017-12-19T04:20:17.356Z,87.50
2017-12-19T04:21:17.293Z,82.00
2017-12-19T04:22:17.262Z,89.20
2017-12-19T04:23:17.225Z,92.00
2017-12-19T04:24:17.183Z,81.90
2017-12-19T04:25:17.138Z,91.40
2017-12-19T04:26:17.096Z,90.60
2017-12-19T04:27:17.064Z,82.90
2017-12-19T04:28:17.033Z,96.00
2017-12-19T04:29:17.005Z,97.60
2017-12-19T04:30:16.947Z,99.60
2017-12-19T04:31:16.896Z,102.60
2017-12-19T04:32:16.919Z,92.50
2017-12-19T04:33:16.817Z,97.40
2017-12-19T04:34:16.777Z,104.90
2017-12-19T04:35:16.739Z,96.80
2017-12-19T04:36:16.697Z,107.00
2017-12-19T04:37:16.657Z,104.40
2017-12-19T04:38:16.617Z,104.30
2017-12-19T04:39:16.578Z,98.30
2017-12-19T04:40:16.540Z,100.80
2017-12-19T04:41:16.499Z,99.70
2017-12-19T04:42:16.455Z,100.00
2017-12-19T04:43:16.415Z,106.90
2017-12-19T04:44:16.377Z,106.50
2017-12-19T04:45:16.339Z,105.00
2017-12-19T04:46:16.300Z,96.40
2017-12-19T04:47:16.257Z,106.20
2017-12-19T04:48:16.217Z,93.30
2017-12-19T04:49:16.179Z,99.70
2017-12-19T04:50:16.138Z,101.50
2017-12-19T04:51:16.097Z,104.70
2017-12-19T04:52:16.060Z,111.80
2017-12-19T04:53:16.023Z,105.90
2017-12-19T04:54:15.979Z,102.50
2017-12-19T04:55:15.936Z,99.70
2017-12-19T04:56:15.897Z,106.70
2017-12-19T04:57:15.859Z,103.70
2017-12-19T04:58:15.819Z,102.00
2017-12-19T04:59:15.803Z,97.90
2017-12-19T05:00:15.740Z,106.40
2017-12-19T05:01:15.699Z,100.70
2017-12-19T05:02:15.660Z,103.00
2017-12-19T05:03:15.620Z,107.40
2017-12-19T05:04:15.580Z,102.90
2017-12-19T05:05:15.542Z,105.30
2017-12-19T05:06:15.504Z,99.60
2017-12-19T05:07:15.462Z,108.80
2017-12-19T05:08:15.424Z,100.30
2017-12-19T05:09:15.384Z,97.80
2017-12-19T05:10:15.342Z,103.80
2017-12-19T05:11:15.305Z,108.20
2017-12-19T05:12:15.262Z,109.50
2017-12-19T05:13:15.223Z,103.00
2017-12-19T05:14:15.184Z,112.80
2017-12-19T05:15:15.143Z,107.30
2017-12-19T05:16:15.103Z,105.50
2017-12-19T05:17:15.068Z,100.00
2017-12-19T05:18:15.024Z,105.10
2017-12-19T05:19:14.983Z,119.70
2017-12-19T05:20:14.946Z,112.80
2017-12-19T05:21:14.904Z,117.80
2017-12-19T05:22:14.864Z,111.50
2017-12-19T05:23:14.825Z,117.30
2017-12-19T05:24:14.788Z,119.00
2017-12-19T05:25:14.749Z,113.80
2017-12-19T05:26:14.708Z,128.50
2017-12-19T05:27:14.670Z,111.60
2017-12-19T05:28:14.626Z,120.20
2017-12-19T05:29:14.589Z,120.20
2017-12-19T05:30:14.553Z,120.60
2017-12-19T05:31:14.511Z,108.80
2017-12-19T05:32:14.471Z,107.80
2017-12-19T05:33:14.436Z,110.50
2017-12-19T05:34:14.391Z,120.80
2017-12-19T05:35:14.351Z,111.40
2017-12-19T05:36:14.311Z,112.20
2017-12-19T05:37:14.270Z,114.40
2017-12-19T05:38:14.232Z,106.40
2017-12-19T05:39:14.190Z,104.80
2017-12-19T05:40:14.152Z,113.30
2017-12-19T05:41:14.114Z,107.40
2017-12-19T05:42:14.071Z,119.80
2017-12-19T05:43:14.032Z,112.80
2017-12-19T05:44:13.992Z,117.40
2017-12-19T05:45:13.953Z,110.90
2017-12-19T05:46:13.912Z,106.20
2017-12-19T05:47:13.873Z,106.20
2017-12-19T05:48:13.835Z,108.10
2017-12-19T05:49:13.793Z,105.00
2017-12-19T05:50:13.754Z,100.50
2017-12-19T05:51:13.715Z,99.00
2017-12-19T05:52:13.675Z,106.30
2017-12-19T05:53:13.634Z,122.70
2017-12-19T05:54:13.592Z,100.20
2017-12-19T05:55:13.555Z,104.60
2017-12-19T05:56:13.514Z,118.10
2017-12-19T05:57:13.474Z,109.00
2017-12-19T05:58:13.434Z,104.90
2017-12-19T05:59:13.873Z,103.00
2017-12-19T06:00:13.356Z,113.10
2017-12-19T06:01:13.316Z,107.40
2017-12-19T06:02:13.274Z,114.80
2017-12-19T06:03:13.235Z,109.20
2017-12-19T06:04:13.196Z,101.50
2017-12-19T06:05:13.156Z,112.30
2017-12-19T06:06:13.118Z,110.50
2017-12-19T06:07:13.076Z,115.90
2017-12-19T06:08:13.035Z,112.70
2017-12-19T06:09:12.998Z,95.40
2017-12-19T06:10:12.956Z,117.60
2017-12-19T06:11:12.918Z,112.50
2017-12-19T06:12:12.878Z,112.60
2017-12-19T06:13:12.836Z,90.10
2017-12-19T06:14:12.796Z,107.40
2017-12-19T06:15:12.760Z,113.50
2017-12-19T06:16:12.716Z,109.90
2017-12-19T06:17:12.677Z,114.40
2017-12-19T06:18:12.635Z,103.90
2017-12-19T06:19:12.599Z,112.60
2017-12-19T06:20:12.556Z,125.80
2017-12-19T06:21:12.516Z,105.50
2017-12-19T06:22:12.475Z,119.90
2017-12-19T06:23:12.435Z,111.70
2017-12-19T06:24:12.469Z,126.00
2017-12-19T06:25:12.358Z,146.80
2017-12-19T06:26:12.378Z,131.80
2017-12-19T06:27:12.277Z,142.20
2017-12-19T06:28:12.238Z,124.80
2017-12-19T06:29:12.199Z,127.30
2017-12-19T06:30:12.159Z,132.70
2017-12-19T06:31:12.118Z,132.30
2017-12-19T06:32:12.079Z,137.40
2017-12-19T06:33:12.611Z,136.40
2017-12-19T06:34:12.002Z,133.00
2017-12-19T06:35:11.959Z,143.30
2017-12-19T06:36:11.920Z,128.40
2017-12-19T06:37:11.880Z,130.10
2017-12-19T06:38:11.839Z,140.80
2017-12-19T06:39:11.798Z,130.80
2017-12-19T06:40:11.762Z,131.40
2017-12-19T06:41:11.720Z,124.60
2017-12-19T06:42:11.679Z,123.20
2017-12-19T06:43:11.641Z,127.50
2017-12-19T06:44:11.599Z,128.70
2017-12-19T06:45:11.564Z,132.30
2017-12-19T06:46:11.517Z,139.30
2017-12-19T06:47:11.480Z,128.40
2017-12-19T06:48:11.440Z,131.00
2017-12-19T06:49:11.403Z,133.80
2017-12-19T06:50:11.362Z,138.60
2017-12-19T06:51:11.321Z,133.40
2017-12-19T06:52:11.282Z,120.80
2017-12-19T06:53:11.242Z,133.80
2017-12-19T06:54:11.202Z,134.80
2017-12-19T06:55:11.161Z,129.70
2017-12-19T06:56:11.123Z,129.60
2017-12-19T06:57:11.083Z,112.30
2017-12-19T06:58:11.042Z,121.60
2017-12-19T06:59:11.005Z,121.50
2017-12-19T07:00:10.981Z,118.50
2017-12-19T07:01:11.222Z,118.70
2017-12-19T07:02:10.882Z,123.30
2017-12-19T07:03:10.846Z,116.00
2017-12-19T07:04:10.806Z,121.10
2017-12-19T07:05:10.765Z,126.70
2017-12-19T07:06:10.729Z,123.00
2017-12-19T07:07:10.686Z,122.20
2017-12-19T07:08:10.651Z,111.40
2017-12-19T07:09:10.608Z,109.50
2017-12-19T07:10:10.567Z,116.60
2017-12-19T07:11:10.528Z,123.40
2017-12-19T07:12:10.489Z,118.60
2017-12-19T07:13:10.451Z,121.50
2017-12-19T07:14:10.410Z,131.00
2017-12-19T07:15:10.381Z,124.20
2017-12-19T07:16:10.333Z,125.00
2017-12-19T07:17:10.291Z,111.90
2017-12-19T07:18:10.252Z,123.20
2017-12-19T07:19:10.213Z,125.20
2017-12-19T07:20:10.176Z,106.00
2017-12-19T07:21:10.134Z,131.60
2017-12-19T07:22:10.094Z,126.40
2017-12-19T07:23:10.057Z,127.30
2017-12-19T07:24:10.733Z,116.20
2017-12-19T07:25:09.982Z,124.10
2017-12-19T07:26:09.938Z,119.50
2017-12-19T07:27:09.898Z,128.40
2017-12-19T07:28:09.857Z,134.00
2017-12-19T07:29:09.819Z,125.00
2017-12-19T07:30:09.867Z,117.20
2017-12-19T07:31:09.739Z,132.30
2017-12-19T07:32:09.703Z,114.90
2017-12-19T07:33:09.664Z,118.80
2017-12-19T07:34:09.624Z,117.90
2017-12-19T07:35:09.585Z,112.00
2017-12-19T07:36:09.542Z,112.00
2017-12-19T07:37:09.502Z,116.30
2017-12-19T07:38:09.464Z,118.00
2017-12-19T07:39:09.425Z,114.10
2017-12-19T07:40:09.385Z,126.20
2017-12-19T07:41:09.345Z,123.00
2017-12-19T07:42:09.307Z,118.80
2017-12-19T07:43:09.266Z,115.40
2017-12-19T07:44:09.228Z,119.00
2017-12-19T07:45:09.187Z,130.00
2017-12-19T07:46:09.148Z,127.30
2017-12-19T07:47:09.110Z,126.70
2017-12-19T07:48:09.068Z,125.80
2017-12-19T07:49:09.029Z,125.90
2017-12-19T07:50:08.990Z,123.80
2017-12-19T07:51:08.953Z,129.70
2017-12-19T07:52:08.914Z,133.50
2017-12-19T07:53:08.872Z,141.50
2017-12-19T07:54:08.833Z,146.80
2017-12-19T07:55:08.792Z,139.60
2017-12-19T07:56:08.753Z,149.60
2017-12-19T07:57:08.715Z,148.40
2017-12-19T07:58:08.675Z,148.30
2017-12-19T07:59:08.635Z,143.70
2017-12-19T08:00:08.596Z,144.00
2017-12-19T08:01:08.558Z,141.30
2017-12-19T08:02:08.516Z,155.70
2017-12-19T08:03:08.482Z,164.40
2017-12-19T08:04:08.439Z,153.50
2017-12-19T08:05:08.400Z,171.30
2017-12-19T08:06:08.359Z,164.80
2017-12-19T08:07:08.320Z,154.90
2017-12-19T08:08:08.284Z,165.20
2017-12-19T08:09:08.245Z,171.30
2017-12-19T08:10:08.207Z,180.90
2017-12-19T08:11:08.165Z,161.40
2017-12-19T08:12:08.127Z,167.10
2017-12-19T08:13:08.086Z,169.50
2017-12-19T08:14:08.046Z,166.40
2017-12-19T08:15:08.006Z,165.90
2017-12-19T08:16:07.966Z,186.10
2017-12-19T08:17:07.926Z,174.90
2017-12-19T08:18:07.885Z,164.30
2017-12-19T08:19:07.848Z,166.10
2017-12-19T08:20:07.811Z,177.70
2017-12-19T08:21:07.772Z,194.60
2017-12-19T08:22:07.733Z,196.20
2017-12-19T08:23:07.691Z,189.20
2017-12-19T08:24:07.655Z,190.60
2017-12-19T08:25:07.612Z,192.10
2017-12-19T08:26:07.572Z,184.00
2017-12-19T08:27:07.535Z,194.40
2017-12-19T08:28:07.496Z,203.60
2017-12-19T08:29:07.453Z,204.80
2017-12-19T08:30:07.418Z,226.60
2017-12-19T08:31:07.379Z,197.20
2017-12-19T08:32:07.340Z,190.90
2017-12-19T08:33:07.300Z,224.10
2017-12-19T08:34:07.257Z,221.50
2017-12-19T08:35:07.219Z,219.20
2017-12-19T08:36:07.180Z,224.00
2017-12-19T08:37:07.143Z,233.40
2017-12-19T08:38:07.102Z,226.50
2017-12-19T08:39:07.062Z,240.40
2017-12-19T08:40:07.023Z,247.40
2017-12-19T08:41:06.985Z,234.20
2017-12-19T08:42:06.942Z,231.90
2017-12-19T08:43:06.909Z,265.00
2017-12-19T08:44:06.892Z,269.30
2017-12-19T08:45:06.826Z,256.70
2017-12-19T08:46:06.787Z,245.40
2017-12-19T08:47:06.746Z,254.50
2017-12-19T08:48:06.709Z,256.50
2017-12-19T08:49:06.671Z,267.80
2017-12-19T08:50:06.630Z,247.50
2017-12-19T08:51:06.592Z,275.40
2017-12-19T08:52:06.553Z,283.00
2017-12-19T08:53:06.512Z,259.30
2017-12-19T08:54:06.472Z,255.60
2017-12-19T08:55:06.432Z,282.70
2017-12-19T08:56:06.395Z,283.60
2017-12-19T08:57:07.434Z,266.00
2017-12-19T08:58:06.313Z,277.20
2017-12-19T08:59:06.276Z,262.80
2017-12-19T09:00:06.237Z,280.20
2017-12-19T09:01:06.197Z,270.30
2017-12-19T09:02:06.162Z,256.00
2017-12-19T09:03:06.117Z,263.90
2017-12-19T09:04:06.081Z,265.50
2017-12-19T09:05:06.041Z,256.10
2017-12-19T09:06:06.001Z,228.10
2017-12-19T09:07:05.960Z,225.90
2017-12-19T09:08:09.080Z,241.40
2017-12-19T09:09:05.882Z,245.50
2017-12-19T09:10:05.841Z,230.80
2017-12-19T09:11:05.803Z,234.20
2017-12-19T09:12:05.763Z,252.10
2017-12-19T09:13:05.724Z,232.00
2017-12-19T09:14:05.685Z,245.00
2017-12-19T09:15:05.645Z,254.00
2017-12-19T09:16:05.607Z,241.50
2017-12-19T09:17:05.568Z,253.50
2017-12-19T09:18:05.527Z,246.30
2017-12-19T09:19:05.619Z,246.90
2017-12-19T09:20:05.450Z,231.20
2017-12-19T09:21:05.412Z,241.30
2017-12-19T09:22:05.369Z,259.30
2017-12-19T09:23:05.334Z,258.30
2017-12-19T09:24:05.293Z,239.10
2017-12-19T09:25:05.254Z,322.70
2017-12-19T09:26:05.213Z,400.70
2017-12-19T09:27:05.173Z,640.30
2017-12-19T09:28:05.137Z,289.30
2017-12-19T09:29:08.059Z,248.70
2017-12-19T09:30:05.061Z,255.40
2017-12-19T09:31:05.019Z,263.10
2017-12-19T09:32:04.984Z,245.70
2017-12-19T09:33:04.941Z,265.00
2017-12-19T09:34:04.902Z,243.30
2017-12-19T09:35:04.862Z,257.00
2017-12-19T09:36:04.824Z,269.40
2017-12-19T09:37:04.784Z,290.40
2017-12-19T09:38:04.745Z,263.80
2017-12-19T09:39:04.706Z,295.50
2017-12-19T09:40:04.666Z,271.30
2017-12-19T09:41:04.686Z,289.20
2017-12-19T09:42:04.588Z,249.90
2017-12-19T09:43:04.551Z,242.30
2017-12-19T09:44:04.525Z,261.80
2017-12-19T09:45:04.473Z,285.30
2017-12-19T09:46:04.433Z,279.70
2017-12-19T09:47:04.393Z,271.90
2017-12-19T09:48:07.056Z,265.30
2017-12-19T09:49:04.829Z,250.70
2017-12-19T09:50:04.280Z,281.70
2017-12-19T09:51:04.237Z,263.60
2017-12-19T09:52:04.200Z,270.90
2017-12-19T09:53:04.161Z,271.30
2017-12-19T09:54:04.121Z,274.30
2017-12-19T09:55:04.083Z,267.90
2017-12-19T09:56:04.044Z,275.90
2017-12-19T09:57:04.004Z,281.50
2017-12-19T09:58:03.988Z,270.70
2017-12-19T09:59:03.932Z,256.40
2017-12-19T10:00:03.921Z,278.00
2017-12-19T10:01:03.851Z,257.80
2017-12-19T10:02:03.810Z,243.00
2017-12-19T10:03:03.775Z,264.70
2017-12-19T10:04:03.738Z,278.10
2017-12-19T10:05:03.697Z,275.50
2017-12-19T10:06:03.660Z,266.00
2017-12-19T10:07:03.619Z,239.10
2017-12-19T10:08:03.582Z,272.40
2017-12-19T10:09:03.540Z,265.90
2017-12-19T10:10:03.502Z,266.20
2017-12-19T10:11:03.462Z,262.80
2017-12-19T10:12:03.427Z,259.50
2017-12-19T10:13:03.385Z,247.20
2017-12-19T10:14:03.345Z,265.20
2017-12-19T10:15:03.307Z,256.40
2017-12-19T10:16:03.268Z,254.30
2017-12-19T10:17:03.230Z,247.60
2017-12-19T10:18:03.191Z,246.60
2017-12-19T10:19:03.155Z,233.60
2017-12-19T10:20:03.116Z,248.90
2017-12-19T10:21:03.077Z,242.70
2017-12-19T10:22:03.037Z,258.70
2017-12-19T10:23:02.999Z,254.90
2017-12-19T10:24:02.961Z,247.40
2017-12-19T10:25:02.921Z,241.90
2017-12-19T10:26:02.882Z,250.10
2017-12-19T10:27:02.844Z,247.90
2017-12-19T10:28:02.808Z,247.10
2017-12-19T10:29:02.767Z,240.00
2017-12-19T10:30:02.729Z,240.30
2017-12-19T10:31:02.689Z,243.30
2017-12-19T10:32:02.652Z,235.30
2017-12-19T10:33:03.078Z,198.90
2017-12-19T10:34:02.584Z,209.30
2017-12-19T10:35:02.536Z,202.00
2017-12-19T10:36:02.499Z,223.80
2017-12-19T10:37:02.463Z,235.70
2017-12-19T10:38:02.422Z,208.50
2017-12-19T10:39:02.439Z,214.50
2017-12-19T10:40:02.346Z,210.90
2017-12-19T10:41:02.306Z,203.10
2017-12-19T10:42:02.267Z,213.80
2017-12-19T10:43:02.231Z,196.10
2017-12-19T10:44:02.400Z,201.40
2017-12-19T10:45:02.156Z,183.40
2017-12-19T10:46:02.116Z,210.20
2017-12-19T10:47:02.076Z,220.70
2017-12-19T10:48:02.043Z,228.00
2017-12-19T10:49:02.006Z,196.50
2017-12-19T10:50:01.964Z,221.90
2017-12-19T10:51:01.991Z,208.00
2017-12-19T10:52:01.888Z,184.90
2017-12-19T10:53:01.850Z,203.60
2017-12-19T10:54:01.871Z,189.80
2017-12-19T10:55:01.772Z,206.70
2017-12-19T10:56:01.736Z,191.20
2017-12-19T10:57:01.697Z,198.20
2017-12-19T10:58:01.655Z,200.40
2017-12-19T10:59:01.620Z,207.00
2017-12-19T11:00:01.581Z,181.00
2017-12-19T11:01:01.543Z,192.80
2017-12-19T11:02:01.505Z,183.80
2017-12-19T11:03:01.466Z,213.40
2017-12-19T11:04:01.428Z,202.00
2017-12-19T11:05:01.390Z,173.50
2017-12-19T11:06:01.351Z,191.50
2017-12-19T11:07:01.315Z,207.50
2017-12-19T11:08:01.275Z,198.80
2017-12-19T11:09:01.239Z,199.00
2017-12-19T11:10:01.200Z,191.70
2017-12-19T11:11:01.160Z,184.70
2017-12-19T11:12:01.122Z,194.00
2017-12-19T11:13:01.083Z,176.70
2017-12-19T11:14:01.047Z,196.60
2017-12-19T11:15:01.007Z,181.80
2017-12-19T11:16:01.359Z,179.00
2017-12-19T11:17:00.929Z,186.20
2017-12-19T11:18:00.889Z,177.10
2017-12-19T11:19:00.853Z,172.70
2017-12-19T11:20:00.814Z,189.90
2017-12-19T11:21:00.777Z,204.80
2017-12-19T11:22:01.180Z,183.30
2017-12-19T11:23:00.699Z,189.70
2017-12-19T11:24:00.661Z,191.40
2017-12-19T11:25:00.621Z,164.90
2017-12-19T11:26:00.583Z,183.80
2017-12-19T11:27:00.549Z,165.80
2017-12-19T11:28:00.507Z,180.20
2017-12-19T11:29:00.467Z,163.40
2017-12-19T11:30:00.430Z,158.70
2017-12-19T11:31:00.390Z,157.70
2017-12-19T11:32:00.351Z,173.10
2017-12-19T11:33:00.317Z,159.20
2017-12-19T11:34:00.278Z,162.60
2017-12-19T11:35:00.236Z,151.10
2017-12-19T11:36:00.198Z,133.90
2017-12-19T11:37:00.198Z,150.40
2017-12-19T11:38:00.119Z,158.50
2017-12-19T11:39:00.083Z,149.20
2017-12-19T11:40:00.044Z,144.50
2017-12-19T11:41:00.006Z,158.70
2017-12-19T11:41:59.967Z,144.80
2017-12-19T11:42:59.928Z,153.20
2017-12-19T11:43:59.887Z,146.80
2017-12-19T11:44:59.849Z,136.70
2017-12-19T11:45:59.812Z,149.20
2017-12-19T11:46:59.774Z,125.40
2017-12-19T11:47:59.736Z,152.00
2017-12-19T11:48:59.696Z,148.20
2017-12-19T11:49:59.659Z,149.00
2017-12-19T11:50:59.620Z,157.60
2017-12-19T11:51:59.583Z,161.20
2017-12-19T11:52:59.543Z,157.10
2017-12-19T11:53:59.962Z,149.20
2017-12-19T11:54:59.467Z,160.00
2017-12-19T11:55:59.429Z,152.30
2017-12-19T11:56:59.387Z,146.90
2017-12-19T11:57:59.350Z,153.60
2017-12-19T11:58:59.314Z,146.30
2017-12-19T11:59:59.277Z,162.90
2017-12-19T12:00:59.354Z,148.00
2017-12-19T12:01:59.201Z,172.80
2017-12-19T12:02:59.158Z,146.50
2017-12-19T12:03:59.284Z,144.70
2017-12-19T12:04:59.100Z,155.70
2017-12-19T12:05:59.046Z,153.70
2017-12-19T12:06:59.006Z,165.30
2017-12-19T12:07:58.969Z,156.00
2017-12-19T12:08:58.930Z,160.30
2017-12-19T12:09:58.891Z,163.50
2017-12-19T12:10:58.859Z,156.00
2017-12-19T12:11:58.816Z,156.70
2017-12-19T12:12:58.779Z,151.30
2017-12-19T12:13:58.738Z,152.90
2017-12-19T12:14:59.226Z,145.80
2017-12-19T12:15:58.666Z,142.20
2017-12-19T12:16:58.627Z,163.10
2017-12-19T12:17:58.588Z,165.40
2017-12-19T12:18:58.550Z,148.00
2017-12-19T12:19:58.513Z,156.70
2017-12-19T12:20:58.474Z,148.00
2017-12-19T12:21:58.526Z,158.70
2017-12-19T12:22:58.401Z,157.20
2017-12-19T12:23:58.362Z,151.40
2017-12-19T12:24:58.322Z,154.50
2017-12-19T12:25:58.286Z,168.90
2017-12-19T12:26:58.249Z,153.50
2017-12-19T12:27:58.208Z,148.60
2017-12-19T12:28:58.211Z,142.60
2017-12-19T12:29:58.130Z,145.00